Potosi, Missouri
Current Conditions -  °F | °C
As of 4:15 AM on Saturday 25 Oct 2014 (Local Time) from KFAM Reporting Station
Clear Clear  
Wind Chill: 57°   Ceiling: Unl
Heat Index: 57°   Visibility: 10mi
Dew Point: 55°   Wind: 3mph
Humidity: 94%   Direction: 160°SSE
Pressure: 30.03"   Gusts: NA
Location:  37.94°N, 90.79°W
Report Text: KFAM 250915Z AUTO 16003KT 10SM CLR 14/13 A3003 RMK AO1
Loading
Personal Weather Stations






























Interactive Weather Map
Tropical Storm Tracking
New forecast layout! Learn more

10-Day Weather Forecast

Advertisements
Track Severe Weather on mobile